Aeroporto :
LOGIN :

Iscrizione | Disclaimer

   EN    FR    IT 

 










Sommario :    VFR   VFR Marginale   IFR   IFR Intensivo   IFR Molto Intensivo
Visibilità : 
Base nubi : 
>= 8 km
>= 3000ft
5 / 8 km
1000 / 3000 ft
1500m / 5 km
500 / 1000 ft
800 / 1500m
200 / 500 ft
< 800m
< 200 ft
Simboli :   Temporali  Nebbia  Neve Forte  Precipitazioni Forti  Vento > 20 kt
SIGMETs :   Varie  Temporali  Ghiacco  Turbolenza  Onda orograficha  Ceneri Vulcaniche






- Altitudine del aeroporto : 1411 ft
- Codice IATA : SZG


LOWS - Salzburg

ULTIMO METAR :
  • 202350Z AUTO 15010KT 9999 SCT240 02/M01 Q1019

METARs OBSOLETI :
  • 202320Z AUTO 16010KT 130V190 9999 FEW240 02/M01 Q1019
  • 202250Z AUTO 16011KT 9999 NSC 01/M01 Q1019
  • 202220Z AUTO 15010KT 9999 NSC 02/M01 Q1019
  • 202150Z 15009KT CAVOK 01/M01 Q1018 NOSIG
  • 202120Z 15009KT 120V180 CAVOK 02/M01 Q1018 NOSIG

TAF TAF LOWS
Valido dal 21 a 00 ore il 22 a 00 ore UTC


202315Z 2100/2124 15010KT CAVOK TX08/2114Z TN00/2101Z
TEMPO 2100/2103 21015KT
BECMG 2101/2103 28007KT 9999 FEW050 SCT070
TEMPO 2102/2106 30020G30KT SHRA SCT020 BKN030
TEMPO 2106/2114 30015G25KT
BECMG 2116/2118 18006KT CAVOK



MetMap, La meteo Aeronautica in un colpo d'occhio ! - Copyright ORBIFLY Dicembre 2007 - Disclaimer

ORBIFLY MET'MAP TEAM :

Programmazione e sviluppo : Alexandra Zaïnal
Concezione : Baudouin d'Aumeries
Aiuto per la programmazione : Marc-Olivier Méhu
Supporto tecnico e logistico : Manuel Goepfert
Aiuto per la traduzione : Arnaldo La Scala

Contatto : metmap@orbifly.com




FONTI E CREDITI :

   NOAA